createdAt,value
2023-11-01T00:00:51.431Z,96364.00
2023-11-01T00:03:18.371Z,96361.00
2023-11-01T00:05:47.887Z,96368.00
2023-11-01T00:08:14.720Z,96362.00
2023-11-01T00:10:41.746Z,96358.00
2023-11-01T00:13:08.575Z,96361.00
2023-11-01T00:15:35.391Z,96359.00
2023-11-01T00:18:02.429Z,96358.00
2023-11-01T00:20:29.348Z,96359.00
2023-11-01T00:22:56.170Z,96355.00
2023-11-01T00:25:23.008Z,96357.00
2023-11-01T00:27:50.099Z,96344.00
2023-11-01T00:30:17.100Z,96339.00
2023-11-01T00:32:43.994Z,96348.00
2023-11-01T00:35:10.926Z,96349.00
2023-11-01T00:37:37.837Z,96335.00
2023-11-01T00:40:05.343Z,96336.00
2023-11-01T00:42:32.278Z,96326.00
2023-11-01T00:44:59.091Z,96327.00
2023-11-01T00:47:26.025Z,96327.00
2023-11-01T00:49:52.888Z,96327.00
2023-11-01T00:52:19.688Z,96331.00
2023-11-01T00:54:46.550Z,96328.00
2023-11-01T00:57:13.441Z,96322.00
2023-11-01T00:59:40.514Z,96325.00
2023-11-01T01:02:07.735Z,96322.00
2023-11-01T01:04:34.626Z,96325.00
2023-11-01T01:07:01.419Z,96324.00
2023-11-01T01:09:28.293Z,96323.00
2023-11-01T01:11:55.110Z,96324.00
2023-11-01T01:14:22.001Z,96322.00
2023-11-01T01:16:48.869Z,96322.00
2023-11-01T01:19:15.731Z,96309.00
2023-11-01T01:21:44.284Z,96321.00
2023-11-01T01:24:11.107Z,96308.00
2023-11-01T01:26:38.088Z,96315.00
2023-11-01T01:29:05.092Z,96306.00
2023-11-01T01:31:31.969Z,96309.00
2023-11-01T01:33:59.003Z,96293.00
2023-11-01T01:36:25.842Z,96297.00
2023-11-01T01:38:52.922Z,96287.00
2023-11-01T01:41:19.865Z,96289.00
2023-11-01T01:43:46.776Z,96283.00
2023-11-01T01:46:16.271Z,96293.00
2023-11-01T01:48:45.712Z,96290.00
2023-11-01T01:51:13.527Z,96289.00
2023-11-01T01:53:43.865Z,96284.00
2023-11-01T01:56:12.106Z,96277.00
2023-11-01T01:58:42.092Z,96277.00
2023-11-01T02:01:09.749Z,96268.00
2023-11-01T02:03:38.139Z,96272.00
2023-11-01T02:06:06.548Z,96278.00
2023-11-01T02:08:33.777Z,96269.00
2023-11-01T02:11:00.828Z,96270.00
2023-11-01T02:13:27.653Z,96274.00
2023-11-01T02:15:54.492Z,96274.00
2023-11-01T02:18:21.768Z,96262.00
2023-11-01T02:20:52.985Z,96267.00
2023-11-01T02:23:29.317Z,96259.00
2023-11-01T02:25:56.927Z,96249.00
2023-11-01T02:28:23.775Z,96251.00
2023-11-01T02:30:50.629Z,96252.00
2023-11-01T02:33:17.524Z,96248.00
2023-11-01T02:35:44.358Z,96246.00
2023-11-01T02:38:12.662Z,96249.00
2023-11-01T02:40:39.514Z,96248.00
2023-11-01T02:43:06.351Z,96243.00
2023-11-01T02:45:33.443Z,96245.00
2023-11-01T02:48:00.950Z,96238.00
2023-11-01T02:50:28.001Z,96245.00
2023-11-01T02:52:54.866Z,96237.00
2023-11-01T02:55:22.050Z,96238.00
2023-11-01T02:57:48.916Z,96236.00
2023-11-01T03:00:22.000Z,96239.00
2023-11-01T03:02:50.497Z,96236.00
2023-11-01T03:05:18.185Z,96229.00
2023-11-01T03:07:45.266Z,96237.00
2023-11-01T03:10:12.680Z,96228.00
2023-11-01T03:12:40.740Z,96222.00
2023-11-01T03:15:09.001Z,96215.00
2023-11-01T03:17:37.313Z,96228.00
2023-11-01T03:20:08.643Z,96215.00
2023-11-01T03:22:36.037Z,96213.00
2023-11-01T03:25:04.085Z,96208.00
2023-11-01T03:27:30.939Z,96208.00
2023-11-01T03:29:57.988Z,96204.00
2023-11-01T03:32:24.807Z,96206.00
2023-11-01T03:34:53.114Z,96209.00
2023-11-01T03:37:20.330Z,96208.00
2023-11-01T03:39:47.556Z,96198.00
2023-11-01T03:42:14.749Z,96195.00
2023-11-01T03:44:42.499Z,96203.00
2023-11-01T03:47:09.350Z,96210.00
2023-11-01T03:49:36.157Z,96197.00
2023-11-01T03:52:03.898Z,96189.00
2023-11-01T03:54:34.770Z,96184.00
2023-11-01T03:57:03.981Z,96184.00
2023-11-01T03:59:31.804Z,96177.00
2023-11-01T04:01:58.980Z,96172.00
2023-11-01T04:04:26.006Z,96167.00
2023-11-01T04:06:53.068Z,96156.00
2023-11-01T04:09:19.939Z,96152.00
2023-11-01T04:11:46.977Z,96144.00
2023-11-01T04:14:15.642Z,96143.00
2023-11-01T04:16:42.720Z,96145.00
2023-11-01T04:19:09.606Z,96148.00
2023-11-01T04:21:36.462Z,96145.00
2023-11-01T04:24:03.354Z,96146.00
2023-11-01T04:26:30.772Z,96155.00
2023-11-01T04:28:57.750Z,96146.00
2023-11-01T04:31:25.492Z,96152.00
2023-11-01T04:33:55.589Z,96151.00
2023-11-01T04:36:25.899Z,96149.00
2023-11-01T04:38:58.268Z,96148.00
2023-11-01T04:41:29.058Z,96145.00
2023-11-01T04:43:56.614Z,96132.00
2023-11-01T04:46:23.580Z,96132.00
2023-11-01T04:48:51.128Z,96136.00
2023-11-01T04:51:18.129Z,96131.00
2023-11-01T04:53:45.806Z,96132.00
2023-11-01T04:56:12.745Z,96129.00
2023-11-01T04:58:39.546Z,96125.00
2023-11-01T05:01:07.531Z,96128.00
2023-11-01T05:03:38.939Z,96118.00
2023-11-01T05:06:07.152Z,96113.00
2023-11-01T05:08:35.491Z,96109.00
2023-11-01T05:11:02.499Z,96110.00
2023-11-01T05:13:29.284Z,96112.00
2023-11-01T05:15:57.024Z,96108.00
2023-11-01T05:18:25.514Z,96115.00
2023-11-01T05:20:52.849Z,96105.00
2023-11-01T05:23:20.312Z,96103.00
2023-11-01T05:25:49.969Z,96100.00
2023-11-01T05:28:17.148Z,96101.00
2023-11-01T05:30:44.025Z,96092.00
2023-11-01T05:33:10.908Z,96094.00
2023-11-01T05:35:38.197Z,96094.00
2023-11-01T05:38:06.392Z,96096.00
2023-11-01T05:40:33.317Z,96091.00
2023-11-01T05:43:00.181Z,96085.00
2023-11-01T05:45:27.094Z,96073.00
2023-11-01T05:47:54.846Z,96074.00
2023-11-01T05:50:25.274Z,96065.00
2023-11-01T05:52:53.980Z,96061.00
2023-11-01T05:55:26.418Z,96053.00
2023-11-01T05:58:01.123Z,96057.00
2023-11-01T06:00:28.148Z,96060.00
2023-11-01T06:02:55.202Z,96057.00
2023-11-01T06:05:23.754Z,96056.00
2023-11-01T06:07:51.017Z,96061.00
2023-11-01T06:10:18.186Z,96056.00
2023-11-01T06:12:45.586Z,96056.00
2023-11-01T06:15:12.785Z,96063.00
2023-11-01T06:17:39.959Z,96057.00
2023-11-01T06:20:07.782Z,96059.00
2023-11-01T06:22:34.756Z,96065.00
2023-11-01T06:25:02.465Z,96063.00
2023-11-01T06:27:29.703Z,96050.00
2023-11-01T06:29:56.953Z,96047.00
2023-11-01T06:32:23.794Z,96046.00
2023-11-01T06:34:50.635Z,96040.00
2023-11-01T06:37:17.586Z,96039.00
2023-11-01T06:39:44.406Z,96047.00
2023-11-01T06:42:11.333Z,96040.00
2023-11-01T06:44:38.232Z,96036.00
2023-11-01T06:47:06.067Z,96022.00
2023-11-01T06:49:35.501Z,96022.00
2023-11-01T06:52:02.474Z,96022.00
2023-11-01T06:54:29.409Z,96012.00
2023-11-01T06:56:57.432Z,96020.00
2023-11-01T06:59:24.417Z,96031.00
2023-11-01T07:01:51.417Z,96015.00
2023-11-01T07:04:18.809Z,96010.00
2023-11-01T07:06:45.652Z,96020.00
2023-11-01T07:09:12.524Z,96012.00
2023-11-01T07:11:39.657Z,96020.00
2023-11-01T07:14:06.517Z,96023.00
2023-11-01T07:16:35.528Z,96011.00
2023-11-01T07:19:02.408Z,96024.00
2023-11-01T07:21:29.267Z,96028.00
2023-11-01T07:23:56.151Z,96015.00
2023-11-01T07:26:23.042Z,96016.00
2023-11-01T07:28:50.440Z,96014.00
2023-11-01T07:31:17.650Z,96015.00
2023-11-01T07:33:45.008Z,96027.00
2023-11-01T07:36:12.246Z,96028.00
2023-11-01T07:38:42.461Z,96025.00
2023-11-01T07:41:10.854Z,96016.00
2023-11-01T07:43:40.005Z,96023.00
2023-11-01T07:46:08.549Z,96012.00
2023-11-01T07:48:36.444Z,96013.00
2023-11-01T07:51:09.944Z,96003.00
2023-11-01T07:53:36.963Z,96009.00
2023-11-01T07:56:04.180Z,96006.00
2023-11-01T07:58:32.446Z,96006.00
2023-11-01T08:01:00.313Z,96011.00
2023-11-01T08:03:27.380Z,96005.00
2023-11-01T08:05:54.843Z,96008.00
2023-11-01T08:08:21.956Z,96010.00
2023-11-01T08:10:48.858Z,96012.00
2023-11-01T08:13:16.541Z,96006.00
2023-11-01T08:15:43.948Z,96002.00
2023-11-01T08:18:11.580Z,96006.00
2023-11-01T08:20:39.476Z,96009.00
2023-11-01T08:23:06.886Z,96011.00
2023-11-01T08:25:35.493Z,96007.00
2023-11-01T08:28:03.486Z,96003.00
2023-11-01T08:30:30.317Z,96011.00
2023-11-01T08:32:57.279Z,96010.00
2023-11-01T08:35:24.740Z,96003.00
2023-11-01T08:37:51.722Z,96002.00
2023-11-01T08:40:18.835Z,96006.00
2023-11-01T08:42:45.649Z,96006.00
2023-11-01T08:45:12.642Z,96000.00
2023-11-01T08:47:45.375Z,96003.00
2023-11-01T08:50:13.992Z,96003.00
2023-11-01T08:52:45.655Z,96000.00
2023-11-01T08:55:14.310Z,96001.00
2023-11-01T08:57:48.328Z,96001.00
2023-11-01T09:00:15.558Z,96007.00
2023-11-01T09:02:42.926Z,95999.00
2023-11-01T09:05:10.303Z,96000.00
2023-11-01T09:07:38.031Z,96000.00
2023-11-01T09:10:05.737Z,95995.00
2023-11-01T09:12:32.615Z,95992.00
2023-11-01T09:14:59.525Z,95992.00
2023-11-01T09:17:26.521Z,95996.00
2023-11-01T09:19:53.414Z,95988.00
2023-11-01T09:22:20.294Z,95988.00
2023-11-01T09:24:47.112Z,95987.00
2023-11-01T09:27:14.199Z,95979.00
2023-11-01T09:29:41.034Z,95983.00
2023-11-01T09:32:08.350Z,95988.00
2023-11-01T09:34:35.171Z,95990.00
2023-11-01T09:37:02.057Z,95989.00
2023-11-01T09:39:28.856Z,95988.00
2023-11-01T09:42:01.844Z,95988.00
2023-11-01T09:44:30.886Z,95984.00
2023-11-01T09:46:59.364Z,95990.00
2023-11-01T09:49:26.555Z,95988.00
2023-11-01T09:51:53.657Z,95990.00
2023-11-01T09:54:20.500Z,95989.00
2023-11-01T09:56:48.236Z,95996.00
2023-11-01T09:59:15.555Z,95994.00
2023-11-01T10:01:42.607Z,95988.00
2023-11-01T10:04:10.747Z,95992.00
2023-11-01T10:06:38.449Z,95986.00
2023-11-01T10:09:08.838Z,95988.00
2023-11-01T10:11:36.069Z,95988.00
2023-11-01T10:14:03.096Z,95978.00
2023-11-01T10:16:31.526Z,95982.00
2023-11-01T10:18:58.349Z,95974.00
2023-11-01T10:21:28.288Z,95961.00
2023-11-01T10:23:58.137Z,95970.00
2023-11-01T10:26:29.672Z,95963.00
2023-11-01T10:28:59.035Z,95962.00
2023-11-01T10:31:26.296Z,95958.00
2023-11-01T10:33:54.064Z,95952.00
2023-11-01T10:36:22.188Z,95952.00
2023-11-01T10:38:52.380Z,95949.00
2023-11-01T10:41:20.123Z,95943.00
2023-11-01T10:43:48.550Z,95947.00
2023-11-01T10:46:16.949Z,95945.00
2023-11-01T10:48:45.961Z,95941.00
2023-11-01T10:51:13.892Z,95942.00
2023-11-01T10:53:43.026Z,95929.00
2023-11-01T10:56:09.983Z,95942.00
2023-11-01T10:58:41.139Z,95933.00
2023-11-01T11:01:07.818Z,95934.00
2023-11-01T11:03:58.375Z,95930.00
2023-11-01T11:06:36.917Z,95921.00
2023-11-01T11:09:25.295Z,95911.00
2023-11-01T11:12:25.920Z,95905.00
2023-11-01T11:14:53.668Z,95902.00
2023-11-01T11:17:26.957Z,95893.00
2023-11-01T11:20:14.442Z,95883.00
2023-11-01T11:23:02.182Z,95885.00
2023-11-01T11:25:45.971Z,95887.00
2023-11-01T11:28:18.490Z,95881.00
2023-11-01T11:30:45.416Z,95878.00
2023-11-01T11:33:13.020Z,95878.00
2023-11-01T11:35:40.175Z,95872.00
2023-11-01T11:38:34.882Z,95868.00
2023-11-01T11:41:17.652Z,95861.00
2023-11-01T11:44:02.483Z,95849.00
2023-11-01T11:46:32.405Z,95844.00
2023-11-01T11:49:01.795Z,95841.00
2023-11-01T11:51:35.330Z,95851.00
2023-11-01T11:54:16.883Z,95841.00
2023-11-01T11:56:44.331Z,95844.00
2023-11-01T11:59:18.625Z,95832.00
2023-11-01T12:01:45.500Z,95834.00
2023-11-01T12:04:13.478Z,95842.00
2023-11-01T12:06:43.715Z,95834.00
2023-11-01T12:09:25.387Z,95833.00
2023-11-01T12:12:10.129Z,95828.00
2023-11-01T12:14:38.901Z,95826.00
2023-11-01T12:17:06.372Z,95823.00
2023-11-01T12:19:33.852Z,95810.00
2023-11-01T12:22:02.096Z,95821.00
2023-11-01T12:24:46.200Z,95821.00
2023-11-01T12:27:22.868Z,95797.00
2023-11-01T12:29:52.486Z,95815.00
2023-11-01T12:32:25.320Z,95806.00
2023-11-01T12:34:52.154Z,95796.00
2023-11-01T12:37:29.824Z,95801.00
2023-11-01T12:40:05.367Z,95801.00
2023-11-01T12:42:36.236Z,95809.00
2023-11-01T12:45:04.467Z,95792.00
2023-11-01T12:47:51.698Z,95794.00
2023-11-01T12:50:28.274Z,95801.00
2023-11-01T12:52:55.257Z,95794.00
2023-11-01T12:55:22.830Z,95781.00
2023-11-01T12:57:52.404Z,95792.00
2023-11-01T13:00:20.769Z,95784.00
2023-11-01T13:02:48.019Z,95779.00
2023-11-01T13:05:15.133Z,95782.00
2023-11-01T13:07:42.685Z,95776.00
2023-11-01T13:10:11.859Z,95766.00
2023-11-01T13:12:49.276Z,95774.00
2023-11-01T13:15:16.931Z,95773.00
2023-11-01T13:17:44.312Z,95763.00
2023-11-01T13:20:11.541Z,95765.00
2023-11-01T13:22:38.382Z,95762.00
2023-11-01T13:25:05.954Z,95766.00
2023-11-01T13:27:32.763Z,95770.00
2023-11-01T13:29:59.635Z,95755.00
2023-11-01T13:32:26.892Z,95763.00
2023-11-01T13:34:55.559Z,95760.00
2023-11-01T13:37:22.426Z,95766.00
2023-11-01T13:39:49.252Z,95751.00
2023-11-01T13:42:17.124Z,95758.00
2023-11-01T13:44:45.253Z,95760.00
2023-11-01T13:47:12.551Z,95759.00
2023-11-01T13:49:41.091Z,95751.00
2023-11-01T13:52:08.727Z,95759.00
2023-11-01T13:54:35.734Z,95754.00
2023-11-01T13:57:04.274Z,95740.00
2023-11-01T13:59:31.885Z,95742.00
2023-11-01T14:01:59.020Z,95751.00
2023-11-01T14:04:26.391Z,95739.00
2023-11-01T14:06:53.393Z,95741.00
2023-11-01T14:09:20.516Z,95740.00
2023-11-01T14:11:52.141Z,95741.00
2023-11-01T14:14:19.599Z,95740.00
2023-11-01T14:16:46.435Z,95742.00
2023-11-01T14:19:13.975Z,95745.00
2023-11-01T14:21:41.022Z,95740.00
2023-11-01T14:24:10.530Z,95743.00
2023-11-01T14:26:38.825Z,95744.00
2023-11-01T14:29:05.946Z,95740.00
2023-11-01T14:31:32.955Z,95741.00
2023-11-01T14:34:00.023Z,95739.00
2023-11-01T14:36:27.121Z,95740.00
2023-11-01T14:38:54.098Z,95740.00
2023-11-01T14:41:21.041Z,95734.00
2023-11-01T14:43:47.887Z,95738.00
2023-11-01T14:46:14.873Z,95719.00
2023-11-01T14:48:44.658Z,95726.00
2023-11-01T14:51:11.694Z,95718.00
2023-11-01T14:56:17.577Z,95715.00
2023-11-01T14:58:48.065Z,95704.00
2023-11-01T15:01:15.841Z,95707.00
2023-11-01T15:03:43.289Z,95709.00
2023-11-01T15:06:12.066Z,95705.00
2023-11-01T15:08:42.286Z,95709.00
2023-11-01T15:11:12.581Z,95705.00
2023-11-01T15:13:39.432Z,95703.00
2023-11-01T15:16:07.578Z,95710.00
2023-11-01T15:18:34.590Z,95701.00
2023-11-01T15:21:01.657Z,95697.00
2023-11-01T15:23:28.534Z,95702.00
2023-11-01T15:26:01.046Z,95700.00
2023-11-01T15:28:28.125Z,95685.00
2023-11-01T15:30:54.930Z,95692.00
2023-11-01T15:33:21.919Z,95689.00
2023-11-01T15:35:48.812Z,95685.00
2023-11-01T15:38:17.420Z,95687.00
2023-11-01T15:40:44.415Z,95682.00
2023-11-01T15:43:11.308Z,95678.00
2023-11-01T15:45:38.464Z,95672.00
2023-11-01T15:48:06.268Z,95664.00
2023-11-01T15:50:37.042Z,95660.00
2023-11-01T15:53:04.605Z,95652.00
2023-11-01T15:55:31.439Z,95660.00
2023-11-01T15:57:58.277Z,95659.00
2023-11-01T16:00:25.432Z,95657.00
2023-11-01T16:02:52.371Z,95664.00
2023-11-01T16:05:19.773Z,95662.00
2023-11-01T16:07:47.411Z,95664.00
2023-11-01T16:10:14.417Z,95668.00
2023-11-01T16:12:41.222Z,95664.00
2023-11-01T16:15:08.574Z,95666.00
2023-11-01T16:17:35.557Z,95675.00
2023-11-01T16:20:03.330Z,95673.00
2023-11-01T16:22:30.750Z,95672.00
2023-11-01T16:24:57.542Z,95676.00
2023-11-01T16:27:24.346Z,95682.00
2023-11-01T16:29:51.650Z,95681.00
2023-11-01T16:32:18.808Z,95700.00
2023-11-01T16:34:46.998Z,95696.00
2023-11-01T16:37:14.136Z,95696.00
2023-11-01T16:39:41.121Z,95696.00
2023-11-01T16:42:09.094Z,95724.00
2023-11-01T16:44:36.064Z,95724.00
2023-11-01T16:47:02.919Z,95727.00
2023-11-01T16:49:29.753Z,95740.00
2023-11-01T16:51:56.557Z,95748.00
2023-11-01T16:54:23.355Z,95751.00
2023-11-01T16:56:50.217Z,95748.00
2023-11-01T16:59:17.295Z,95770.00
2023-11-01T17:01:44.159Z,95775.00
2023-11-01T17:04:11.188Z,95753.00
2023-11-01T17:06:38.158Z,95760.00
2023-11-01T17:09:05.154Z,95774.00
2023-11-01T17:11:32.371Z,95781.00
2023-11-01T17:13:59.249Z,95773.00
2023-11-01T17:16:26.187Z,95775.00
2023-11-01T17:18:53.957Z,95762.00
2023-11-01T17:21:20.834Z,95766.00
2023-11-01T17:23:47.975Z,95759.00
2023-11-01T17:26:35.173Z,95766.00
2023-11-01T17:29:02.202Z,95749.00
2023-11-01T17:31:42.056Z,95787.00
2023-11-01T17:34:28.366Z,95778.00
2023-11-01T17:37:00.808Z,95781.00
2023-11-01T17:39:39.786Z,95772.00
2023-11-01T17:42:10.879Z,95779.00
2023-11-01T17:44:40.269Z,95779.00
2023-11-01T17:47:27.353Z,95775.00
2023-11-01T17:49:56.511Z,95781.00
2023-11-01T17:52:36.712Z,95773.00
2023-11-01T17:55:09.934Z,95771.00
2023-11-01T17:57:40.201Z,95757.00
2023-11-01T18:00:08.702Z,95764.00
2023-11-01T18:03:16.511Z,95766.00
2023-11-01T18:05:46.866Z,95763.00
2023-11-01T18:08:20.273Z,95739.00
2023-11-01T18:10:53.900Z,95738.00
2023-11-01T18:13:35.778Z,95750.00
2023-11-01T18:16:06.832Z,95775.00
2023-11-01T18:18:46.592Z,95745.00
2023-11-01T18:21:24.768Z,95762.00
2023-11-01T18:24:04.715Z,95755.00
2023-11-01T18:26:32.696Z,95761.00
2023-11-01T18:29:05.858Z,95762.00
2023-11-01T18:31:46.534Z,95764.00
2023-11-01T18:34:22.178Z,95771.00
2023-11-01T18:36:53.007Z,95749.00
2023-11-01T18:39:24.787Z,95765.00
2023-11-01T18:41:52.362Z,95762.00
2023-11-01T18:44:26.300Z,95765.00
2023-11-01T18:46:55.421Z,95767.00
2023-11-01T18:50:05.454Z,95770.00
2023-11-01T18:52:32.287Z,95759.00
2023-11-01T18:54:59.877Z,95744.00
2023-11-01T18:57:31.818Z,95743.00
2023-11-01T18:59:58.910Z,95751.00
2023-11-01T19:02:37.505Z,95749.00
2023-11-01T19:05:10.591Z,95752.00
2023-11-01T19:07:45.192Z,95739.00
2023-11-01T19:10:14.449Z,95740.00
2023-11-01T19:12:41.824Z,95741.00
2023-11-01T19:15:38.708Z,95728.00
2023-11-01T19:18:18.493Z,95738.00
2023-11-01T19:20:47.259Z,95716.00
2023-11-01T19:23:14.518Z,95736.00
2023-11-01T19:25:41.373Z,95735.00
2023-11-01T19:28:08.238Z,95729.00
2023-11-01T19:30:36.950Z,95739.00
2023-11-01T19:33:04.107Z,95738.00
2023-11-01T19:35:31.075Z,95744.00
2023-11-01T19:37:57.869Z,95744.00
2023-11-01T19:40:25.030Z,95734.00
2023-11-01T19:42:52.592Z,95731.00
2023-11-01T19:45:19.738Z,95746.00
2023-11-01T19:47:47.184Z,95732.00
2023-11-01T19:50:26.407Z,95728.00
2023-11-01T19:52:53.948Z,95726.00
2023-11-01T19:55:20.785Z,95721.00
2023-11-01T19:57:48.542Z,95724.00
2023-11-01T20:00:16.003Z,95728.00
2023-11-01T20:02:43.411Z,95722.00
2023-11-01T20:05:10.372Z,95711.00
2023-11-01T20:07:37.555Z,95710.00
2023-11-01T20:10:10.688Z,95703.00
2023-11-01T20:12:39.468Z,95695.00
2023-11-01T20:15:13.660Z,95691.00
2023-11-01T20:17:40.641Z,95690.00
2023-11-01T20:20:09.100Z,95678.00
2023-11-01T20:22:41.837Z,95676.00
2023-11-01T20:25:11.306Z,95683.00
2023-11-01T20:27:38.292Z,95668.00
2023-11-01T20:30:07.134Z,95662.00
2023-11-01T20:32:34.206Z,95663.00
2023-11-01T20:35:01.173Z,95655.00
2023-11-01T20:37:28.176Z,95665.00
2023-11-01T20:39:55.044Z,95671.00
2023-11-01T20:42:22.602Z,95670.00
2023-11-01T20:44:49.488Z,95663.00
2023-11-01T20:47:16.381Z,95658.00
2023-11-01T20:49:43.308Z,95653.00
2023-11-01T20:52:10.175Z,95665.00
2023-11-01T20:54:44.598Z,95649.00
2023-11-01T20:57:13.747Z,95641.00
2023-11-01T20:59:43.549Z,95642.00
2023-11-01T21:02:10.547Z,95643.00
2023-11-01T21:04:37.559Z,95643.00
2023-11-01T21:07:05.135Z,95642.00
2023-11-01T21:09:32.022Z,95638.00
2023-11-01T21:11:58.889Z,95633.00
2023-11-01T21:14:26.921Z,95622.00
2023-11-01T21:16:55.053Z,95621.00
2023-11-01T21:19:22.855Z,95608.00
2023-11-01T21:21:51.433Z,95606.00
2023-11-01T21:24:22.161Z,95595.00
2023-11-01T21:26:49.234Z,95597.00
2023-11-01T21:29:16.310Z,95578.00
2023-11-01T21:31:43.285Z,95571.00
2023-11-01T21:34:10.905Z,95562.00
2023-11-01T21:36:37.803Z,95550.00
2023-11-01T21:39:05.070Z,95545.00
2023-11-01T21:41:32.207Z,95545.00
2023-11-01T21:43:59.195Z,95541.00
2023-11-01T21:46:29.847Z,95540.00
2023-11-01T21:48:57.576Z,95532.00
2023-11-01T21:51:27.653Z,95533.00
2023-11-01T21:53:55.721Z,95528.00
2023-11-01T21:56:30.441Z,95506.00
2023-11-01T21:59:12.249Z,95506.00
2023-11-01T22:01:39.152Z,95496.00
2023-11-01T22:04:21.760Z,95480.00
2023-11-01T22:06:50.497Z,95463.00
2023-11-01T22:09:19.248Z,95468.00
2023-11-01T22:11:50.858Z,95462.00
2023-11-01T22:14:23.637Z,95446.00
2023-11-01T22:16:50.504Z,95435.00
2023-11-01T22:19:38.889Z,95434.00
2023-11-01T22:22:34.678Z,95434.00
2023-11-01T22:25:01.497Z,95429.00
2023-11-01T22:27:38.841Z,95424.00
2023-11-01T22:30:08.566Z,95421.00
2023-11-01T22:32:35.506Z,95433.00
2023-11-01T22:35:02.482Z,95426.00
2023-11-01T22:37:29.719Z,95426.00
2023-11-01T22:39:57.396Z,95422.00
2023-11-01T22:42:31.766Z,95430.00
2023-11-01T22:45:02.375Z,95410.00
2023-11-01T22:47:29.840Z,95403.00
2023-11-01T22:49:56.697Z,95393.00
2023-11-01T22:52:23.507Z,95387.00
2023-11-01T22:54:50.330Z,95378.00
2023-11-01T22:57:17.196Z,95379.00
2023-11-01T22:59:44.358Z,95370.00
2023-11-01T23:02:13.454Z,95363.00
2023-11-01T23:04:41.781Z,95352.00
2023-11-01T23:07:10.767Z,95351.00
2023-11-01T23:09:37.940Z,95343.00
2023-11-01T23:12:05.725Z,95328.00
2023-11-01T23:14:32.558Z,95337.00
2023-11-01T23:16:59.401Z,95329.00
2023-11-01T23:19:26.260Z,95327.00
2023-11-01T23:21:53.119Z,95325.00
2023-11-01T23:24:20.357Z,95310.00
2023-11-01T23:26:55.828Z,95303.00
2023-11-01T23:29:30.645Z,95291.00
2023-11-01T23:31:58.675Z,95276.00
2023-11-01T23:34:49.437Z,95271.00
2023-11-01T23:37:34.913Z,95264.00
2023-11-01T23:40:05.688Z,95264.00
2023-11-01T23:42:32.798Z,95256.00
2023-11-01T23:45:00.563Z,95252.00
2023-11-01T23:47:43.865Z,95249.00
2023-11-01T23:50:31.657Z,95243.00
2023-11-01T23:53:04.318Z,95234.00
2023-11-01T23:55:32.769Z,95225.00
2023-11-01T23:58:03.661Z,95207.00
